createdAt,value
2023-01-11T00:00:43.812Z,100610.19
2023-01-11T00:03:11.815Z,100605.66
2023-01-11T00:05:40.328Z,100606.56
2023-01-11T00:08:09.015Z,100605.66
2023-01-11T00:10:39.663Z,100601.19
2023-01-11T00:13:09.101Z,100596.91
2023-01-11T00:15:38.375Z,100591.41
2023-01-11T00:18:06.449Z,100590.56
2023-01-11T00:20:34.617Z,100587.88
2023-01-11T00:23:02.674Z,100588.00
2023-01-11T00:25:30.744Z,100584.47
2023-01-11T00:27:58.716Z,100586.16
2023-01-11T00:30:30.354Z,100586.28
2023-01-11T00:32:59.102Z,100582.72
2023-01-11T00:35:28.735Z,100581.88
2023-01-11T00:37:56.752Z,100572.97
2023-01-11T00:40:26.369Z,100573.81
2023-01-11T00:43:12.137Z,100568.59
2023-01-11T00:46:02.635Z,100570.41
2023-01-11T00:48:30.684Z,100570.41
2023-01-11T00:50:59.431Z,100566.88
2023-01-11T00:53:27.391Z,100566.00
2023-01-11T00:55:57.789Z,100572.25
2023-01-11T00:58:25.786Z,100556.16
2023-01-11T01:00:55.061Z,100559.78
2023-01-11T01:03:25.076Z,100560.63
2023-01-11T01:05:55.774Z,100554.41
2023-01-11T01:08:23.788Z,100552.72
2023-01-11T01:10:52.745Z,100543.69
2023-01-11T01:13:38.655Z,100549.19
2023-01-11T01:16:08.914Z,100539.44
2023-01-11T01:18:36.935Z,100544.78
2023-01-11T01:21:07.475Z,100544.78
2023-01-11T01:23:35.381Z,100542.13
2023-01-11T01:26:04.740Z,100547.47
2023-01-11T01:28:32.959Z,100551.09
2023-01-11T01:31:00.954Z,100547.56
2023-01-11T01:33:30.385Z,100549.41
2023-01-11T01:35:58.390Z,100550.25
2023-01-11T01:38:27.557Z,100546.72
2023-01-11T01:40:56.943Z,100552.06
2023-01-11T01:43:47.682Z,100553.03
2023-01-11T01:46:16.497Z,100552.19
2023-01-11T01:48:50.662Z,100555.84
2023-01-11T01:51:22.123Z,100546.91
2023-01-11T01:53:55.948Z,100550.56
2023-01-11T01:56:29.415Z,100542.44
2023-01-11T01:59:04.783Z,100548.66
2023-01-11T02:01:51.088Z,100547.91
2023-01-11T02:04:26.169Z,100549.59
2023-01-11T02:06:59.127Z,100548.75
2023-01-11T02:09:32.451Z,100545.13
2023-01-11T02:12:02.035Z,100537.09
2023-01-11T02:14:33.899Z,100538.88
2023-01-11T02:17:01.890Z,100534.28
2023-01-11T02:19:45.569Z,100530.75
2023-01-11T02:22:45.331Z,100533.53
2023-01-11T02:25:36.675Z,100526.38
2023-01-11T02:28:12.094Z,100529.03
2023-01-11T02:30:46.743Z,100528.06
2023-01-11T02:33:22.829Z,100529.91
2023-01-11T02:36:03.059Z,100518.31
2023-01-11T02:38:37.260Z,100531.72
2023-01-11T02:41:13.711Z,100520.13
2023-01-11T02:44:10.516Z,100527.31
2023-01-11T02:46:45.386Z,100536.19
2023-01-11T02:49:19.727Z,100524.63
2023-01-11T02:51:54.064Z,100523.78
2023-01-11T02:54:24.203Z,100524.75
2023-01-11T02:56:57.011Z,100522.91
2023-01-11T02:59:32.931Z,100524.75
2023-01-11T03:02:01.059Z,100515.84
2023-01-11T03:04:31.405Z,100519.38
2023-01-11T03:07:12.561Z,100523.03
2023-01-11T03:09:52.573Z,100512.31
2023-01-11T03:12:52.723Z,100523.03
2023-01-11T03:16:00.313Z,100518.63
2023-01-11T03:18:46.494Z,100519.47
2023-01-11T03:21:26.571Z,100521.31
2023-01-11T03:24:05.468Z,100530.31
2023-01-11T03:26:48.130Z,100526.78
2023-01-11T03:29:28.172Z,100518.75
2023-01-11T03:32:09.781Z,100518.88
2023-01-11T03:34:45.601Z,100521.53
2023-01-11T03:37:20.206Z,100518.88
2023-01-11T03:39:54.568Z,100525.16
2023-01-11T03:42:24.680Z,100529.69
2023-01-11T03:44:56.512Z,100521.63
2023-01-11T03:47:29.689Z,100528.81
2023-01-11T03:50:00.808Z,100532.47
2023-01-11T03:52:34.139Z,100528.94
2023-01-11T03:55:05.568Z,100519.06
2023-01-11T03:57:36.314Z,100536.09
2023-01-11T04:00:06.328Z,100531.72
2023-01-11T04:02:40.089Z,100527.19
2023-01-11T04:05:10.289Z,100530.00
2023-01-11T04:07:38.269Z,100523.78
2023-01-11T04:10:07.418Z,100529.03
2023-01-11T04:12:35.474Z,100535.38
2023-01-11T04:15:05.278Z,100539.88
2023-01-11T04:17:33.582Z,100545.22
2023-01-11T04:20:02.917Z,100544.38
2023-01-11T04:22:30.851Z,100543.53
2023-01-11T04:24:58.899Z,100534.59
2023-01-11T04:27:26.805Z,100541.78
2023-01-11T04:29:57.140Z,100543.53
2023-01-11T04:32:26.293Z,100540.06
2023-01-11T04:34:54.258Z,100564.06
2023-01-11T04:37:23.566Z,100544.59
2023-01-11T04:39:51.842Z,100546.28
2023-01-11T04:42:19.111Z,100566.88
2023-01-11T04:44:48.090Z,100568.69
2023-01-11T04:47:16.732Z,100567.00
2023-01-11T04:49:44.998Z,100576.72
2023-01-11T04:52:14.574Z,100568.69
2023-01-11T04:54:44.252Z,100570.59
2023-01-11T04:57:14.207Z,100572.34
2023-01-11T04:59:46.731Z,100575.97
2023-01-11T05:02:15.242Z,100576.94
2023-01-11T05:04:43.320Z,100582.31
2023-01-11T05:07:11.861Z,100587.66
2023-01-11T05:09:40.867Z,100586.81
2023-01-11T05:12:10.264Z,100581.44
2023-01-11T05:14:38.244Z,100587.66
2023-01-11T05:17:06.274Z,100590.34
2023-01-11T05:19:37.490Z,100593.00
2023-01-11T05:22:05.477Z,100585.09
2023-01-11T05:24:33.502Z,100589.59
2023-01-11T05:27:01.425Z,100602.03
2023-01-11T05:29:30.856Z,100602.09
2023-01-11T05:31:58.982Z,100603.94
2023-01-11T05:34:27.015Z,100601.25
2023-01-11T05:36:55.092Z,100611.13
2023-01-11T05:39:23.854Z,100619.16
2023-01-11T05:41:51.936Z,100611.97
2023-01-11T05:44:39.824Z,100608.44
2023-01-11T05:47:09.266Z,100611.97
2023-01-11T05:49:37.295Z,100608.44
2023-01-11T05:52:05.628Z,100614.78
2023-01-11T05:54:33.612Z,100616.59
2023-01-11T05:57:01.561Z,100616.59
2023-01-11T05:59:32.049Z,100615.75
2023-01-11T06:02:00.423Z,100613.91
2023-01-11T06:04:29.916Z,100616.59
2023-01-11T06:06:57.875Z,100613.91
2023-01-11T06:09:26.053Z,100622.94
2023-01-11T06:11:53.996Z,100614.88
2023-01-11T06:14:21.952Z,100618.50
2023-01-11T06:16:49.999Z,100615.81
2023-01-11T06:19:18.207Z,100623.88
2023-01-11T06:21:47.626Z,100623.00
2023-01-11T06:24:18.870Z,100623.88
2023-01-11T06:26:46.894Z,100625.69
2023-01-11T06:29:15.664Z,100632.88
2023-01-11T06:31:46.013Z,100643.59
2023-01-11T06:34:14.035Z,100645.53
2023-01-11T06:36:44.484Z,100641.88
2023-01-11T06:39:13.845Z,100635.75
2023-01-11T06:41:43.768Z,100644.56
2023-01-11T06:44:12.119Z,100645.53
2023-01-11T06:46:40.214Z,100657.19
2023-01-11T06:49:08.298Z,100660.72
2023-01-11T06:51:36.249Z,100658.94
2023-01-11T06:54:04.372Z,100662.53
2023-01-11T06:56:33.674Z,100656.97
2023-01-11T06:59:04.140Z,100674.22
2023-01-11T07:01:32.488Z,100678.72
2023-01-11T07:04:00.744Z,100678.72
2023-01-11T07:06:32.035Z,100684.94
2023-01-11T07:09:00.047Z,100692.22
2023-01-11T07:11:27.948Z,100702.00
2023-01-11T07:13:57.250Z,100708.28
2023-01-11T07:16:25.502Z,100702.91
2023-01-11T07:18:53.649Z,100704.66
2023-01-11T07:21:21.716Z,100713.63
2023-01-11T07:23:49.932Z,100731.53
2023-01-11T07:26:18.238Z,100739.56
2023-01-11T07:28:46.252Z,100728.00
2023-01-11T07:31:15.773Z,100723.63
2023-01-11T07:33:43.751Z,100715.56
2023-01-11T07:36:11.755Z,100724.59
2023-01-11T07:38:39.776Z,100729.94
2023-01-11T07:41:27.781Z,100729.94
2023-01-11T07:43:54.789Z,100746.00
2023-01-11T07:46:24.321Z,100746.00
2023-01-11T07:48:52.490Z,100759.41
2023-01-11T07:51:24.412Z,100762.09
2023-01-11T07:53:52.425Z,100768.38
2023-01-11T07:56:22.343Z,100768.38
2023-01-11T07:58:51.484Z,100779.97
2023-01-11T08:01:19.672Z,100782.66
2023-01-11T08:03:49.184Z,100789.81
2023-01-11T08:06:18.946Z,100794.31
2023-01-11T08:08:46.989Z,100789.91
2023-01-11T08:11:32.493Z,100802.34
2023-01-11T08:14:17.693Z,100805.13
2023-01-11T08:16:45.680Z,100806.00
2023-01-11T08:19:14.999Z,100812.31
2023-01-11T08:21:45.919Z,100815.00
2023-01-11T08:24:13.927Z,100819.47
2023-01-11T08:26:44.299Z,100834.69
2023-01-11T08:29:12.479Z,100831.09
2023-01-11T08:31:40.649Z,100841.81
2023-01-11T08:34:09.538Z,100843.75
2023-01-11T08:36:38.926Z,100858.00
2023-01-11T08:39:06.944Z,100857.16
2023-01-11T08:41:38.340Z,100858.88
2023-01-11T08:44:06.907Z,100859.91
2023-01-11T08:46:35.034Z,100864.31
2023-01-11T08:49:03.182Z,100874.19
2023-01-11T08:51:32.643Z,100874.19
2023-01-11T08:54:02.049Z,100886.63
2023-01-11T08:56:32.580Z,100877.63
2023-01-11T08:59:01.581Z,100893.69
2023-01-11T09:01:29.856Z,100894.53
2023-01-11T09:04:00.791Z,100903.44
2023-01-11T09:06:28.795Z,100892.72
2023-01-11T09:08:56.986Z,100897.22
2023-01-11T09:11:43.754Z,100896.38
2023-01-11T09:14:12.076Z,100902.56
2023-01-11T09:16:42.437Z,100901.84
2023-01-11T09:19:10.391Z,100904.41
2023-01-11T09:21:38.335Z,100911.47
2023-01-11T09:24:06.952Z,100901.72
2023-01-11T09:26:38.004Z,100903.66
2023-01-11T09:29:06.201Z,100911.75
2023-01-11T09:31:34.184Z,100924.28
2023-01-11T09:34:02.410Z,100922.47
2023-01-11T09:36:32.138Z,100925.09
2023-01-11T09:39:02.230Z,100926.88
2023-01-11T09:41:44.985Z,100926.78
2023-01-11T09:44:19.073Z,100929.47
2023-01-11T09:46:51.836Z,100932.16
2023-01-11T09:49:23.805Z,100940.94
2023-01-11T09:51:53.567Z,100941.03
2023-01-11T09:54:27.408Z,100945.44
2023-01-11T09:57:07.923Z,100944.56
2023-01-11T09:59:46.744Z,100944.56
2023-01-11T10:02:29.376Z,100952.63
2023-01-11T10:05:26.001Z,100962.94
2023-01-11T10:18:28.979Z,100965.63
2023-01-11T10:18:30.326Z,100961.22
2023-01-11T10:20:07.953Z,100964.66
2023-01-11T10:22:42.654Z,100964.59
2023-01-11T10:25:18.873Z,100954.81
2023-01-11T10:27:56.891Z,100956.53
2023-01-11T10:30:45.513Z,100961.97
2023-01-11T10:33:29.999Z,100967.25
2023-01-11T10:36:14.807Z,100966.41
2023-01-11T10:39:11.081Z,100962.84
2023-01-11T10:41:52.399Z,100963.91
2023-01-11T10:44:30.579Z,100969.25
2023-01-11T10:47:00.883Z,100968.41
2023-01-11T10:49:49.574Z,100969.34
2023-01-11T10:52:35.181Z,100966.75
2023-01-11T10:55:13.015Z,100968.47
2023-01-11T10:58:01.843Z,100967.81
2023-01-11T11:00:43.067Z,100960.72
2023-01-11T11:03:35.918Z,100972.47
2023-01-11T11:06:10.491Z,100968.88
2023-01-11T11:08:46.508Z,100963.53
2023-01-11T11:11:20.394Z,100961.78
2023-01-11T11:13:54.175Z,100956.41
2023-01-11T11:16:38.680Z,100964.44
2023-01-11T11:19:13.267Z,100974.22
2023-01-11T11:21:43.858Z,100963.53
2023-01-11T11:24:20.840Z,100966.09
2023-01-11T11:26:57.384Z,100960.63
2023-01-11T11:29:30.603Z,100960.63
2023-01-11T11:32:01.004Z,100959.69
2023-01-11T11:34:31.019Z,100959.59
2023-01-11T11:37:01.647Z,100956.06
2023-01-11T11:39:31.367Z,100961.41
2023-01-11T11:42:07.622Z,100959.47
2023-01-11T11:44:36.371Z,100969.34
2023-01-11T11:47:06.439Z,100970.19
2023-01-11T11:49:37.001Z,100966.59
2023-01-11T11:52:08.425Z,100966.47
2023-01-11T11:54:40.629Z,100970.13
2023-01-11T11:57:17.308Z,100974.50
2023-01-11T11:59:47.618Z,100977.28
2023-01-11T12:02:27.782Z,100978.03
2023-01-11T12:04:59.734Z,100983.41
2023-01-11T12:07:34.455Z,100981.69
2023-01-11T12:10:10.249Z,100979.88
2023-01-11T12:12:52.298Z,100986.94
2023-01-11T12:15:24.335Z,100988.75
2023-01-11T12:17:52.667Z,100998.53
2023-01-11T12:20:34.943Z,100998.53
2023-01-11T12:23:25.399Z,101000.25
2023-01-11T12:26:11.905Z,100999.28
2023-01-11T12:29:07.687Z,101001.22
2023-01-11T12:31:46.200Z,100988.59
2023-01-11T12:34:35.655Z,100989.53
2023-01-11T12:37:14.222Z,100996.63
2023-01-11T12:39:55.476Z,101001.97
2023-01-11T12:42:43.364Z,101002.81
2023-01-11T12:45:21.561Z,101002.94
2023-01-11T12:48:24.215Z,101005.69
2023-01-11T12:51:07.442Z,101005.69
2023-01-11T12:53:49.865Z,100997.66
2023-01-11T12:56:27.461Z,101002.16
2023-01-11T12:59:03.552Z,101002.16
2023-01-11T13:01:42.325Z,101001.28
2023-01-11T13:04:36.376Z,101006.66
2023-01-11T13:07:13.932Z,101000.03
2023-01-11T13:09:54.183Z,101000.03
2023-01-11T13:12:29.262Z,101014.28
2023-01-11T13:15:07.490Z,101012.47
2023-01-11T13:17:41.903Z,101027.56
2023-01-11T13:20:30.901Z,101020.50
2023-01-11T13:23:05.392Z,101017.94
2023-01-11T13:25:39.896Z,101016.56
2023-01-11T13:28:23.940Z,101016.56
2023-01-11T13:30:53.139Z,101014.66
2023-01-11T13:33:24.617Z,101005.69
2023-01-11T13:35:58.945Z,101002.22
2023-01-11T13:38:36.701Z,101012.75
2023-01-11T13:41:16.303Z,101009.97
2023-01-11T13:43:54.430Z,101001.00
2023-01-11T13:46:35.994Z,101000.91
2023-01-11T13:49:13.780Z,101013.44
2023-01-11T13:51:47.569Z,101005.41
2023-01-11T13:54:20.919Z,101007.97
2023-01-11T13:56:56.796Z,101013.25
2023-01-11T13:59:30.660Z,101011.34
2023-01-11T14:02:06.251Z,101012.28
2023-01-11T14:04:46.203Z,101025.50
2023-01-11T14:07:26.819Z,101013.94
2023-01-11T14:10:09.788Z,101019.19
2023-01-11T14:13:01.179Z,101005.78
2023-01-11T14:15:33.856Z,101002.16
2023-01-11T14:18:19.367Z,101006.56
2023-01-11T14:20:53.695Z,101010.97
2023-01-11T14:23:25.634Z,101010.13
2023-01-11T14:26:26.694Z,100998.53
2023-01-11T14:29:08.579Z,101002.06
2023-01-11T14:31:56.458Z,100999.41
2023-01-11T14:34:46.007Z,100994.91
2023-01-11T14:37:28.018Z,101003.78
2023-01-11T14:40:27.948Z,101011.72
2023-01-11T14:43:28.938Z,101007.31
2023-01-11T14:46:29.037Z,101023.41
2023-01-11T14:49:12.697Z,101018.03
2023-01-11T14:51:55.607Z,101024.38
2023-01-11T14:54:28.529Z,101026.19
2023-01-11T14:56:57.984Z,101035.06
2023-01-11T14:59:37.890Z,101032.56
2023-01-11T15:02:25.175Z,101036.22
2023-01-11T15:05:31.453Z,101036.13
2023-01-11T15:08:25.829Z,101030.69
2023-01-11T15:10:58.669Z,101033.38
2023-01-11T15:13:29.029Z,101039.66
2023-01-11T15:16:26.705Z,101033.38
2023-01-11T15:18:56.595Z,101037.81
2023-01-11T15:21:26.323Z,101036.03
2023-01-11T15:23:56.735Z,101042.25
2023-01-11T15:26:26.418Z,101038.72
2023-01-11T15:28:57.152Z,101036.91
2023-01-11T15:31:39.097Z,101032.41
2023-01-11T15:34:24.944Z,101033.25
2023-01-11T15:37:12.021Z,101044.81
2023-01-11T15:39:47.257Z,101038.50
2023-01-11T15:42:39.305Z,101034.97
2023-01-11T15:45:32.021Z,101036.78
2023-01-11T15:48:17.647Z,101029.63
2023-01-11T15:51:03.728Z,101026.84
2023-01-11T15:54:11.952Z,101025.97
2023-01-11T15:57:33.695Z,101033.16
2023-01-11T16:00:34.238Z,101033.16
2023-01-11T16:03:35.575Z,101038.63
2023-01-11T16:06:17.125Z,101030.56
2023-01-11T16:08:54.550Z,101034.97
2023-01-11T16:11:33.001Z,101034.97
2023-01-11T16:14:20.239Z,101040.31
2023-01-11T16:16:51.803Z,101039.47
2023-01-11T16:19:22.038Z,101041.28
2023-01-11T16:21:55.436Z,101037.66
2023-01-11T16:24:26.755Z,101034.13
2023-01-11T16:26:58.495Z,101031.44
2023-01-11T16:29:29.857Z,101032.28
2023-01-11T16:32:00.767Z,101039.38
2023-01-11T16:34:30.148Z,101042.03
2023-01-11T16:37:00.365Z,101042.03
2023-01-11T16:39:31.204Z,101037.56
2023-01-11T16:42:03.310Z,101048.19
2023-01-11T16:44:41.919Z,101039.28
2023-01-11T16:47:17.077Z,101036.63
2023-01-11T16:49:49.821Z,101041.00
2023-01-11T16:52:41.364Z,101042.72
2023-01-11T16:55:25.864Z,101037.38
2023-01-11T16:57:58.168Z,101041.78
2023-01-11T17:00:32.304Z,101038.25
2023-01-11T17:03:20.443Z,101040.00
2023-01-11T17:06:00.393Z,101049.81
2023-01-11T17:08:32.686Z,101049.75
2023-01-11T17:11:05.337Z,101058.66
2023-01-11T17:13:56.576Z,101051.41
2023-01-11T17:16:31.411Z,101045.19
2023-01-11T17:19:07.740Z,101054.06
2023-01-11T17:21:35.842Z,101053.97
2023-01-11T17:24:07.889Z,101031.69
2023-01-11T17:26:43.278Z,101046.78
2023-01-11T17:29:17.274Z,101043.25
2023-01-11T17:31:45.757Z,101045.81
2023-01-11T17:34:18.732Z,101049.38
2023-01-11T17:36:47.673Z,101048.44
2023-01-11T17:39:27.250Z,101051.97
2023-01-11T17:42:13.216Z,101040.28
2023-01-11T17:44:59.541Z,101048.59
2023-01-11T17:47:28.813Z,101032.63
2023-01-11T17:49:58.817Z,101049.47
2023-01-11T17:52:28.340Z,101041.34
2023-01-11T17:55:12.688Z,101049.28
2023-01-11T17:57:40.915Z,101046.44
2023-01-11T18:00:24.584Z,101043.47
2023-01-11T18:02:53.374Z,101033.50
2023-01-11T18:05:25.931Z,101041.34
2023-01-11T18:07:57.455Z,101051.88
2023-01-11T18:10:29.425Z,101044.50
2023-01-11T18:13:00.653Z,101043.47
2023-01-11T18:15:32.080Z,101042.41
2023-01-11T18:18:01.058Z,101032.53
2023-01-11T18:20:35.511Z,101030.63
2023-01-11T18:23:16.779Z,101019.81
2023-01-11T18:25:46.954Z,101012.63
2023-01-11T18:28:31.159Z,101014.38
2023-01-11T18:31:01.946Z,101002.69
2023-01-11T18:33:32.823Z,101000.84
2023-01-11T18:36:03.079Z,100995.50
2023-01-11T18:38:33.364Z,100984.78
2023-01-11T18:41:27.455Z,100988.31
2023-01-11T18:43:56.336Z,100988.25
2023-01-11T18:46:24.349Z,100996.28
2023-01-11T18:48:52.377Z,100978.44
2023-01-11T18:51:26.238Z,100975.78
2023-01-11T18:53:54.304Z,100983.72
2023-01-11T18:56:23.849Z,100970.22
2023-01-11T18:58:51.855Z,100988.91
2023-01-11T19:01:20.139Z,100969.25
2023-01-11T19:03:51.284Z,100962.00
2023-01-11T19:06:21.520Z,100964.00
2023-01-11T19:08:49.563Z,100963.06
2023-01-11T19:11:17.639Z,100969.47
2023-01-11T19:13:55.689Z,100970.22
2023-01-11T19:16:26.799Z,100971.88
2023-01-11T19:18:55.398Z,100965.53
2023-01-11T19:21:23.384Z,100961.81
2023-01-11T19:23:51.496Z,100953.78
2023-01-11T19:26:19.559Z,100959.91
2023-01-11T19:28:47.561Z,100948.22
2023-01-11T19:31:17.691Z,100954.31
2023-01-11T19:33:45.843Z,100941.69
2023-01-11T19:36:13.853Z,100947.06
2023-01-11T19:38:41.901Z,100938.91
2023-01-11T19:41:12.226Z,100940.66
2023-01-11T19:43:44.995Z,100934.31
2023-01-11T19:46:15.054Z,100926.28
2023-01-11T19:48:46.436Z,100911.91
2023-01-11T19:51:14.639Z,100914.47
2023-01-11T19:53:44.081Z,100911.78
2023-01-11T19:56:12.089Z,100916.22
2023-01-11T19:58:41.453Z,100916.22
2023-01-11T20:01:11.777Z,100911.72
2023-01-11T20:03:41.201Z,100906.25
2023-01-11T20:06:11.069Z,100905.31
2023-01-11T20:08:41.219Z,100888.44
2023-01-11T20:11:10.404Z,100892.84
2023-01-11T20:13:38.861Z,100902.72
2023-01-11T20:16:07.984Z,100900.03
2023-01-11T20:18:36.153Z,100921.28
2023-01-11T20:21:04.264Z,100918.59
2023-01-11T20:23:34.504Z,100919.34
2023-01-11T20:26:03.954Z,100914.94
2023-01-11T20:28:32.276Z,100904.16
2023-01-11T20:31:02.218Z,100905.84
2023-01-11T20:33:30.786Z,100896.84
2023-01-11T20:35:58.730Z,100894.16
2023-01-11T20:38:26.653Z,100917.31
2023-01-11T20:40:55.947Z,100920.00
2023-01-11T20:43:23.920Z,100913.72
2023-01-11T20:45:56.419Z,100908.34
2023-01-11T20:48:24.481Z,100909.19
2023-01-11T20:50:52.448Z,100912.72
2023-01-11T20:53:20.363Z,100917.13
2023-01-11T20:55:48.383Z,100914.44
2023-01-11T20:58:17.735Z,100914.44
2023-01-11T21:00:47.978Z,100923.34
2023-01-11T21:03:16.012Z,100934.94
2023-01-11T21:05:44.088Z,100924.22
2023-01-11T21:08:12.111Z,100927.78
2023-01-11T21:10:40.094Z,100929.50
2023-01-11T21:15:37.895Z,100912.53
2023-01-11T21:18:07.186Z,100911.56
2023-01-11T21:20:35.356Z,100908.88
2023-01-11T21:23:03.427Z,100898.16
2023-01-11T21:25:34.433Z,100884.75
2023-01-11T21:28:03.164Z,100891.94
2023-01-11T21:30:31.224Z,100888.41
2023-01-11T21:33:02.888Z,100886.47
2023-01-11T21:35:30.868Z,100890.13
2023-01-11T21:37:58.833Z,100882.06
2023-01-11T21:40:30.154Z,100875.00
2023-01-11T21:42:59.112Z,100877.69
2023-01-11T21:45:27.145Z,100875.84
2023-01-11T21:47:55.105Z,100879.50
2023-01-11T21:50:24.493Z,100867.91
2023-01-11T21:52:54.713Z,100865.22
2023-01-11T21:55:22.701Z,100859.84
2023-01-11T21:57:50.715Z,100856.31
2023-01-11T22:00:19.777Z,100859.97
2023-01-11T22:02:51.027Z,100853.75
2023-01-11T22:05:19.373Z,100843.88
2023-01-11T22:07:48.658Z,100845.69
2023-01-11T22:10:17.458Z,100847.53
2023-01-11T22:12:45.408Z,100837.66
2023-01-11T22:15:13.379Z,100834.97
2023-01-11T22:17:41.539Z,100837.66
2023-01-11T22:20:10.997Z,100838.63
2023-01-11T22:22:38.979Z,100815.56
2023-01-11T22:25:09.292Z,100820.81
2023-01-11T22:27:37.205Z,100822.63
2023-01-11T22:30:05.827Z,100827.13
2023-01-11T22:32:33.776Z,100819.22
2023-01-11T22:35:01.795Z,100825.44
2023-01-11T22:37:32.340Z,100827.25
2023-01-11T22:40:01.723Z,100834.44
2023-01-11T22:42:31.340Z,100834.44
2023-01-11T22:44:59.423Z,100847.94
2023-01-11T22:47:27.389Z,100844.38
2023-01-11T22:49:56.784Z,100854.25
2023-01-11T22:52:26.757Z,100856.94
2023-01-11T22:54:55.342Z,100848.03
2023-01-11T22:57:23.371Z,100854.38
2023-01-11T22:59:52.638Z,100855.31
2023-01-11T23:02:20.636Z,100866.44
2023-01-11T23:04:48.881Z,100862.03
2023-01-11T23:07:16.947Z,100854.97
2023-01-11T23:09:44.898Z,100863.00
2023-01-11T23:12:30.146Z,100863.00
2023-01-11T23:14:59.491Z,100857.63
2023-01-11T23:17:29.689Z,100864.81
2023-01-11T23:19:57.705Z,100863.84
2023-01-11T23:22:25.789Z,100867.50
2023-01-11T23:24:53.773Z,100872.88
2023-01-11T23:27:21.769Z,100863.00
2023-01-11T23:29:49.980Z,100857.63
2023-01-11T23:32:19.311Z,100863.00
2023-01-11T23:34:47.309Z,100862.16
2023-01-11T23:37:15.298Z,100863.13
2023-01-11T23:39:43.328Z,100865.78
2023-01-11T23:42:26.678Z,100855.94
2023-01-11T23:44:54.733Z,100874.69
2023-01-11T23:47:25.182Z,100856.03
2023-01-11T23:49:55.628Z,100862.34
2023-01-11T23:52:25.499Z,100857.84
2023-01-11T23:54:53.657Z,100859.66
2023-01-11T23:57:25.719Z,100862.44
2023-01-11T23:59:53.785Z,100852.69
